createdAt,value
2023-03-16T00:01:08.053Z,99761.43
2023-03-16T00:03:36.980Z,99761.95
2023-03-16T00:06:05.936Z,99761.14
2023-03-16T00:08:38.721Z,99760.90
2023-03-16T00:11:07.615Z,99764.95
2023-03-16T00:13:36.759Z,99763.02
2023-03-16T00:16:05.354Z,99763.86
2023-03-16T00:18:39.188Z,99760.64
2023-03-16T00:21:07.703Z,99758.94
2023-03-16T00:23:37.674Z,99754.41
2023-03-16T00:26:08.716Z,99754.00
2023-03-16T00:28:39.370Z,99752.58
2023-03-16T00:31:12.039Z,99754.08
2023-03-16T00:35:23.654Z,99759.84
2023-03-16T00:37:52.184Z,99756.81
2023-03-16T00:40:20.613Z,99756.17
2023-03-16T00:42:48.746Z,99753.69
2023-03-16T00:45:18.393Z,99756.14
2023-03-16T00:47:46.856Z,99752.90
2023-03-16T00:50:15.869Z,99756.61
2023-03-16T00:52:44.654Z,99762.77
2023-03-16T00:55:13.237Z,99761.45
2023-03-16T00:57:45.306Z,99761.71
2023-03-16T01:00:17.274Z,99761.72
2023-03-16T01:02:50.280Z,99754.63
2023-03-16T01:05:20.084Z,99753.95
2023-03-16T01:07:48.961Z,99756.86
2023-03-16T01:10:18.154Z,99760.52
2023-03-16T01:12:46.945Z,99761.95
2023-03-16T01:15:15.433Z,99768.35
2023-03-16T01:17:44.659Z,99769.56
2023-03-16T01:20:15.974Z,99769.60
2023-03-16T01:22:45.316Z,99769.59
2023-03-16T01:25:13.657Z,99769.16
2023-03-16T01:27:43.340Z,99772.56
2023-03-16T01:30:12.724Z,99775.05
2023-03-16T01:32:41.949Z,99774.63
2023-03-16T01:35:14.032Z,99776.40
2023-03-16T01:37:42.410Z,99775.33
2023-03-16T01:40:17.155Z,99773.80
2023-03-16T01:42:48.860Z,99770.41
2023-03-16T01:45:55.742Z,99772.52
2023-03-16T01:48:25.498Z,99778.17
2023-03-16T01:50:54.484Z,99781.46
2023-03-16T01:53:24.501Z,99784.67
2023-03-16T01:55:55.356Z,99789.05
2023-03-16T01:58:23.925Z,99792.89
2023-03-16T02:00:52.299Z,99793.23
2023-03-16T02:03:23.445Z,99789.20
2023-03-16T02:06:03.609Z,99789.77
2023-03-16T02:08:33.825Z,99794.48
2023-03-16T02:11:02.044Z,99799.45
2023-03-16T02:13:49.423Z,99806.27
2023-03-16T02:16:19.597Z,99810.36
2023-03-16T02:18:50.458Z,99808.61
2023-03-16T02:21:33.322Z,99809.48
2023-03-16T02:24:02.632Z,99812.64
2023-03-16T02:26:40.506Z,99817.40
2023-03-16T02:29:21.376Z,99825.17
2023-03-16T02:31:52.320Z,99828.98
2023-03-16T02:34:21.627Z,99824.23
2023-03-16T02:36:50.116Z,99821.88
2023-03-16T02:39:19.099Z,99817.05
2023-03-16T02:41:47.474Z,99808.92
2023-03-16T02:44:18.854Z,99799.33
2023-03-16T02:46:47.328Z,99791.66
2023-03-16T02:49:28.353Z,99795.54
2023-03-16T02:51:57.783Z,99793.75
2023-03-16T02:54:26.267Z,99796.77
2023-03-16T02:56:54.744Z,99804.63
2023-03-16T02:59:23.127Z,99808.15
2023-03-16T03:01:58.787Z,99807.16
2023-03-16T03:04:27.085Z,99805.77
2023-03-16T03:06:55.344Z,99810.94
2023-03-16T03:09:24.012Z,99799.94
2023-03-16T03:11:54.446Z,99805.10
2023-03-16T03:14:25.789Z,99806.84
2023-03-16T03:16:55.092Z,99805.98
2023-03-16T03:19:23.322Z,99805.11
2023-03-16T03:21:57.008Z,99804.96
2023-03-16T03:24:25.373Z,99802.39
2023-03-16T03:26:53.627Z,99797.11
2023-03-16T03:29:22.384Z,99796.46
2023-03-16T03:31:50.703Z,99795.17
2023-03-16T03:34:24.407Z,99796.41
2023-03-16T03:36:53.912Z,99798.34
2023-03-16T03:39:22.485Z,99802.27
2023-03-16T03:41:55.881Z,99809.11
2023-03-16T03:44:24.380Z,99813.30
2023-03-16T03:46:53.638Z,99809.26
2023-03-16T03:49:22.760Z,99815.08
2023-03-16T03:51:52.339Z,99819.50
2023-03-16T03:54:26.391Z,99817.73
2023-03-16T03:57:05.444Z,99815.60
2023-03-16T03:59:35.424Z,99819.65
2023-03-16T04:02:24.172Z,99814.90
2023-03-16T04:04:58.661Z,99811.50
2023-03-16T04:07:26.883Z,99814.48
2023-03-16T04:09:56.590Z,99817.02
2023-03-16T04:12:37.163Z,99819.58
2023-03-16T04:15:06.559Z,99821.93
2023-03-16T04:17:44.869Z,99822.31
2023-03-16T04:20:14.714Z,99822.95
2023-03-16T04:22:43.984Z,99823.54
2023-03-16T04:25:17.051Z,99824.88
2023-03-16T04:27:47.053Z,99830.67
2023-03-16T04:30:16.697Z,99828.04
2023-03-16T04:32:49.540Z,99822.88
2023-03-16T04:35:20.405Z,99823.49
2023-03-16T04:37:51.465Z,99827.75
2023-03-16T04:40:21.191Z,99833.56
2023-03-16T04:42:54.988Z,99841.10
2023-03-16T04:45:24.896Z,99845.85
2023-03-16T04:47:53.806Z,99852.25
2023-03-16T04:50:23.293Z,99853.27
2023-03-16T04:52:54.479Z,99852.56
2023-03-16T04:55:25.250Z,99851.46
2023-03-16T04:57:54.882Z,99851.63
2023-03-16T05:00:23.876Z,99856.77
2023-03-16T05:02:58.910Z,99860.71
2023-03-16T05:05:27.237Z,99863.90
2023-03-16T05:07:56.078Z,99865.93
2023-03-16T05:10:26.741Z,99871.68
2023-03-16T05:12:55.227Z,99876.35
2023-03-16T05:15:24.866Z,99884.20
2023-03-16T05:18:13.460Z,99888.42
2023-03-16T05:20:42.449Z,99892.35
2023-03-16T05:23:11.958Z,99899.00
2023-03-16T05:25:48.126Z,99902.19
2023-03-16T05:28:16.977Z,99906.63
2023-03-16T05:30:51.926Z,99908.36
2023-03-16T05:33:23.497Z,99909.20
2023-03-16T05:35:57.758Z,99912.06
2023-03-16T05:38:27.646Z,99911.73
2023-03-16T05:41:02.907Z,99908.25
2023-03-16T05:43:45.585Z,99911.58
2023-03-16T05:46:14.590Z,99913.63
2023-03-16T05:48:43.876Z,99913.34
2023-03-16T05:51:17.608Z,99913.04
2023-03-16T05:53:46.677Z,99914.30
2023-03-16T05:56:22.021Z,99913.29
2023-03-16T05:58:52.233Z,99911.96
2023-03-16T06:01:20.775Z,99917.45
2023-03-16T06:03:49.385Z,99927.15
2023-03-16T06:06:21.745Z,99924.58
2023-03-16T06:09:03.684Z,99928.57
2023-03-16T06:11:33.184Z,99931.91
2023-03-16T06:14:02.419Z,99939.40
2023-03-16T06:16:33.189Z,99939.81
2023-03-16T06:19:01.809Z,99948.11
2023-03-16T06:21:31.631Z,99946.55
2023-03-16T06:24:09.527Z,99948.94
2023-03-16T06:26:38.522Z,99950.58
2023-03-16T06:29:08.716Z,99955.64
2023-03-16T06:31:41.827Z,99961.69
2023-03-16T06:34:10.313Z,99962.31
2023-03-16T06:36:39.955Z,99963.89
2023-03-16T06:39:11.877Z,99966.98
2023-03-16T06:41:46.726Z,99969.60
2023-03-16T06:44:17.754Z,99968.14
2023-03-16T06:46:58.576Z,99970.08
2023-03-16T06:49:27.415Z,99974.01
2023-03-16T06:51:58.272Z,99978.84
2023-03-16T06:54:28.370Z,99979.94
2023-03-16T06:56:57.158Z,99978.01
2023-03-16T06:59:25.438Z,99980.69
2023-03-16T07:01:54.437Z,99977.13
2023-03-16T07:04:23.363Z,99974.08
2023-03-16T07:06:51.788Z,99979.69
2023-03-16T07:09:22.331Z,99982.63
2023-03-16T07:11:53.101Z,99988.70
2023-03-16T07:14:23.690Z,99986.56
2023-03-16T07:16:57.167Z,99986.37
2023-03-16T07:19:26.182Z,99988.06
2023-03-16T07:21:58.214Z,99989.90
2023-03-16T07:24:26.991Z,99997.08
2023-03-16T07:26:55.652Z,100000.30
2023-03-16T07:29:30.862Z,100007.46
2023-03-16T07:31:59.321Z,100010.83
2023-03-16T07:34:34.480Z,100017.19
2023-03-16T07:37:03.585Z,100018.48
2023-03-16T07:39:33.132Z,100020.42
2023-03-16T07:42:08.856Z,100023.51
2023-03-16T07:44:51.331Z,100028.80
2023-03-16T07:47:20.672Z,100031.89
2023-03-16T07:49:50.052Z,100031.66
2023-03-16T07:52:18.708Z,100034.06
2023-03-16T07:54:49.105Z,100034.86
2023-03-16T07:57:17.643Z,100039.91
2023-03-16T07:59:47.776Z,100041.23
2023-03-16T08:02:19.643Z,100041.44
2023-03-16T08:04:48.718Z,100039.96
2023-03-16T08:07:17.712Z,100039.36
2023-03-16T08:10:01.203Z,100042.09
2023-03-16T08:12:35.166Z,100041.02
2023-03-16T08:15:06.105Z,100039.05
2023-03-16T08:17:34.828Z,100037.06
2023-03-16T08:20:10.870Z,100038.85
2023-03-16T08:22:46.701Z,100039.78
2023-03-16T08:25:16.428Z,100038.05
2023-03-16T08:27:53.701Z,100039.24
2023-03-16T08:30:23.015Z,100045.02
2023-03-16T08:33:01.669Z,100050.80
2023-03-16T08:35:31.737Z,100049.13
2023-03-16T08:38:00.289Z,100049.46
2023-03-16T08:40:30.136Z,100049.78
2023-03-16T08:42:59.331Z,100050.10
2023-03-16T08:45:28.130Z,100055.66
2023-03-16T08:47:56.708Z,100059.27
2023-03-16T08:50:28.598Z,100062.59
2023-03-16T08:52:57.253Z,100064.64
2023-03-16T08:55:26.768Z,100068.84
2023-03-16T08:57:55.249Z,100067.77
2023-03-16T09:00:23.927Z,100072.29
2023-03-16T09:02:52.200Z,100080.08
2023-03-16T09:05:20.711Z,100084.02
2023-03-16T09:07:49.167Z,100088.62
2023-03-16T09:10:23.332Z,100089.54
2023-03-16T09:12:52.473Z,100093.23
2023-03-16T09:15:20.882Z,100099.83
2023-03-16T09:17:49.335Z,100095.49
2023-03-16T09:20:22.663Z,100091.91
2023-03-16T09:23:07.773Z,100091.02
2023-03-16T09:25:37.107Z,100099.09
2023-03-16T09:28:05.791Z,100102.81
2023-03-16T09:30:35.396Z,100104.16
2023-03-16T09:33:04.872Z,100105.05
2023-03-16T09:35:37.284Z,100106.25
2023-03-16T09:38:07.545Z,100105.91
2023-03-16T09:40:36.296Z,100104.04
2023-03-16T09:43:13.682Z,100105.48
2023-03-16T09:45:48.895Z,100107.41
2023-03-16T09:48:21.221Z,100109.65
2023-03-16T09:50:49.849Z,100113.40
2023-03-16T09:53:26.348Z,100110.86
2023-03-16T09:56:13.671Z,100110.48
2023-03-16T09:58:41.945Z,100112.48
2023-03-16T10:01:16.690Z,100114.10
2023-03-16T10:04:08.009Z,100115.30
2023-03-16T10:06:51.117Z,100107.64
2023-03-16T10:09:39.793Z,100105.91
2023-03-16T10:12:08.972Z,100109.18
2023-03-16T10:14:47.720Z,100109.10
2023-03-16T10:17:18.081Z,100106.84
2023-03-16T10:19:54.497Z,100106.80
2023-03-16T10:22:26.700Z,100109.98
2023-03-16T10:25:02.033Z,100112.00
2023-03-16T10:27:32.345Z,100117.92
2023-03-16T10:30:01.765Z,100114.83
2023-03-16T10:32:32.231Z,100119.00
2023-03-16T10:35:21.106Z,100119.90
2023-03-16T10:37:49.551Z,100118.27
2023-03-16T10:40:20.531Z,100124.44
2023-03-16T10:42:48.903Z,100124.73
2023-03-16T10:45:25.751Z,100124.70
2023-03-16T10:47:54.685Z,100126.25
2023-03-16T10:50:25.431Z,100127.75
2023-03-16T10:52:54.730Z,100130.13
2023-03-16T10:55:32.670Z,100126.86
2023-03-16T10:58:02.232Z,100122.86
2023-03-16T11:00:37.981Z,100123.79
2023-03-16T11:03:14.859Z,100123.70
2023-03-16T11:05:43.241Z,100125.67
2023-03-16T11:08:19.824Z,100125.61
2023-03-16T11:10:57.681Z,100125.98
2023-03-16T11:13:33.537Z,100130.23
2023-03-16T11:16:23.249Z,100129.08
2023-03-16T11:19:15.179Z,100129.55
2023-03-16T11:21:46.891Z,100129.08
2023-03-16T11:24:24.021Z,100129.35
2023-03-16T11:26:57.746Z,100128.77
2023-03-16T11:29:47.616Z,100128.93
2023-03-16T11:32:26.782Z,100131.84
2023-03-16T11:34:55.532Z,100136.38
2023-03-16T11:37:43.128Z,100138.61
2023-03-16T11:40:45.648Z,100140.65
2023-03-16T11:43:41.816Z,100144.01
2023-03-16T11:46:32.316Z,100149.15
2023-03-16T11:49:19.204Z,100157.97
2023-03-16T11:51:51.863Z,100164.16
2023-03-16T11:54:41.727Z,100169.22
2023-03-16T11:57:28.650Z,100174.08
2023-03-16T12:00:13.032Z,100179.05
2023-03-16T12:02:50.683Z,100184.73
2023-03-16T12:05:37.321Z,100187.69
2023-03-16T12:08:17.261Z,100194.59
2023-03-16T12:10:58.767Z,100196.59
2023-03-16T12:13:38.896Z,100199.70
2023-03-16T12:16:39.067Z,100196.70
2023-03-16T12:19:18.203Z,100192.48
2023-03-16T12:21:46.944Z,100192.60
2023-03-16T12:24:17.930Z,100194.56
2023-03-16T12:26:49.848Z,100193.16
2023-03-16T12:29:33.836Z,100193.77
2023-03-16T12:32:04.927Z,100191.95
2023-03-16T12:34:53.413Z,100193.65
2023-03-16T12:37:54.158Z,100198.14
2023-03-16T12:40:42.726Z,100200.98
2023-03-16T12:43:29.385Z,100205.03
2023-03-16T12:45:57.636Z,100213.33
2023-03-16T12:48:44.993Z,100212.70
2023-03-16T12:52:58.741Z,100212.16
2023-03-16T12:55:40.417Z,100211.80
2023-03-16T12:58:08.793Z,100212.23
2023-03-16T13:00:40.772Z,100215.30
2023-03-16T13:03:15.726Z,100217.41
2023-03-16T13:05:45.868Z,100221.83
2023-03-16T13:08:16.128Z,100227.67
2023-03-16T13:11:10.939Z,100232.63
2023-03-16T13:14:02.128Z,100235.39
2023-03-16T13:16:33.610Z,100232.57
2023-03-16T13:19:27.694Z,100231.54
2023-03-16T13:22:28.835Z,100232.45
2023-03-16T13:25:23.602Z,100229.91
2023-03-16T13:27:53.433Z,100235.95
2023-03-16T13:30:30.246Z,100236.33
2023-03-16T13:33:15.397Z,100237.02
2023-03-16T13:35:44.265Z,100232.13
2023-03-16T13:38:20.197Z,100229.69
2023-03-16T13:40:50.087Z,100232.41
2023-03-16T13:43:20.075Z,100240.45
2023-03-16T13:45:48.667Z,100242.30
2023-03-16T13:48:18.385Z,100249.33
2023-03-16T13:50:57.542Z,100246.44
2023-03-16T13:53:30.644Z,100238.59
2023-03-16T13:56:04.426Z,100235.81
2023-03-16T13:58:36.257Z,100240.29
2023-03-16T14:01:33.577Z,100242.27
2023-03-16T14:04:13.896Z,100249.85
2023-03-16T14:06:56.305Z,100251.34
2023-03-16T14:09:27.630Z,100255.09
2023-03-16T14:11:57.036Z,100263.16
2023-03-16T14:14:31.002Z,100270.24
2023-03-16T14:17:12.025Z,100270.77
2023-03-16T14:19:52.380Z,100274.59
2023-03-16T14:22:23.947Z,100283.11
2023-03-16T14:24:55.074Z,100283.71
2023-03-16T14:29:37.469Z,100293.73
2023-03-16T14:33:36.184Z,100298.17
2023-03-16T14:36:16.271Z,100299.17
2023-03-16T14:38:49.393Z,100295.48
2023-03-16T14:41:26.068Z,100303.63
2023-03-16T14:44:05.103Z,100309.21
2023-03-16T14:46:44.676Z,100310.42
2023-03-16T14:49:25.132Z,100316.38
2023-03-16T14:52:41.756Z,100322.84
2023-03-16T14:55:21.068Z,100318.94
2023-03-16T14:57:57.994Z,100319.75
2023-03-16T15:00:33.024Z,100328.62
2023-03-16T15:03:16.082Z,100333.37
2023-03-16T15:05:56.312Z,100333.91
2023-03-16T15:08:35.498Z,100335.58
2023-03-16T15:11:07.491Z,100338.52
2023-03-16T15:13:53.501Z,100338.05
2023-03-16T15:16:23.493Z,100336.65
2023-03-16T15:18:52.113Z,100343.40
2023-03-16T15:21:25.158Z,100349.16
2023-03-16T15:23:58.838Z,100357.33
2023-03-16T15:26:28.811Z,100365.61
2023-03-16T15:28:57.366Z,100366.92
2023-03-16T15:31:26.286Z,100372.50
2023-03-16T15:33:54.626Z,100374.67
2023-03-16T15:36:24.454Z,100377.69
2023-03-16T15:38:54.804Z,100381.66
2023-03-16T15:41:23.677Z,100383.78
2023-03-16T15:44:00.773Z,100393.87
2023-03-16T15:46:29.630Z,100398.98
2023-03-16T15:48:58.040Z,100403.93
2023-03-16T15:51:27.929Z,100411.16
2023-03-16T15:53:59.644Z,100419.36
2023-03-16T15:56:30.428Z,100422.45
2023-03-16T15:59:10.973Z,100429.24
2023-03-16T16:01:47.910Z,100437.07
2023-03-16T16:04:19.944Z,100440.67
2023-03-16T16:06:48.603Z,100445.35
2023-03-16T16:09:17.397Z,100448.06
2023-03-16T16:11:47.416Z,100457.20
2023-03-16T16:14:23.134Z,100461.67
2023-03-16T16:16:51.883Z,100465.38
2023-03-16T16:19:20.231Z,100467.94
2023-03-16T16:21:49.256Z,100472.80
2023-03-16T16:24:18.612Z,100479.90
2023-03-16T16:26:54.801Z,100484.60
2023-03-16T16:29:25.788Z,100486.61
2023-03-16T16:31:55.659Z,100488.15
2023-03-16T16:34:25.839Z,100489.59
2023-03-16T16:36:55.786Z,100490.56
2023-03-16T16:39:24.473Z,100497.85
2023-03-16T16:41:58.089Z,100505.65
2023-03-16T16:44:28.115Z,100512.27
2023-03-16T16:46:59.807Z,100519.30
2023-03-16T16:49:31.121Z,100522.86
2023-03-16T16:51:59.825Z,100526.41
2023-03-16T16:54:29.840Z,100529.42
2023-03-16T16:56:59.238Z,100528.70
2023-03-16T16:59:31.499Z,100533.98
2023-03-16T17:02:01.147Z,100537.25
2023-03-16T17:04:32.147Z,100538.61
2023-03-16T17:07:03.043Z,100537.83
2023-03-16T17:09:35.428Z,100540.61
2023-03-16T17:12:05.038Z,100540.88
2023-03-16T17:14:33.959Z,100549.29
2023-03-16T17:17:07.246Z,100554.83
2023-03-16T17:19:36.469Z,100554.94
2023-03-16T17:22:06.351Z,100561.04
2023-03-16T17:24:34.706Z,100563.35
2023-03-16T17:27:04.641Z,100569.13
2023-03-16T17:29:33.746Z,100568.34
2023-03-16T17:32:05.040Z,100575.40
2023-03-16T17:34:33.470Z,100576.18
2023-03-16T17:37:08.693Z,100575.48
2023-03-16T17:39:39.755Z,100567.77
2023-03-16T17:42:12.865Z,100563.02
2023-03-16T17:44:43.257Z,100561.72
2023-03-16T17:47:14.503Z,100564.05
2023-03-16T17:49:45.029Z,100559.05
2023-03-16T17:52:18.969Z,100561.64
2023-03-16T17:54:51.433Z,100565.41
2023-03-16T17:57:27.677Z,100562.49
2023-03-16T17:59:55.956Z,100568.50
2023-03-16T18:02:31.195Z,100568.92
2023-03-16T18:05:00.505Z,100574.77
2023-03-16T18:07:28.996Z,100573.07
2023-03-16T18:10:20.098Z,100577.11
2023-03-16T18:13:00.143Z,100578.64
2023-03-16T18:15:32.079Z,100578.35
2023-03-16T18:18:01.038Z,100576.20
2023-03-16T18:20:34.546Z,100576.92
2023-03-16T18:23:15.573Z,100581.11
2023-03-16T18:25:44.161Z,100584.23
2023-03-16T18:28:14.029Z,100588.77
2023-03-16T18:30:44.912Z,100590.17
2023-03-16T18:33:25.069Z,100593.14
2023-03-16T18:35:54.807Z,100595.20
2023-03-16T18:38:33.215Z,100596.83
2023-03-16T18:41:03.609Z,100598.89
2023-03-16T18:43:32.103Z,100601.27
2023-03-16T18:46:00.276Z,100599.82
2023-03-16T18:48:31.218Z,100601.39
2023-03-16T18:51:01.132Z,100605.06
2023-03-16T18:53:29.836Z,100609.84
2023-03-16T18:55:58.848Z,100604.94
2023-03-16T18:58:27.066Z,100607.11
2023-03-16T19:00:59.224Z,100611.45
2023-03-16T19:03:29.913Z,100608.67
2023-03-16T19:05:59.927Z,100615.27
2023-03-16T19:08:28.800Z,100610.23
2023-03-16T19:11:01.084Z,100615.27
2023-03-16T19:13:30.154Z,100621.64
2023-03-16T19:15:58.731Z,100627.12
2023-03-16T19:18:27.424Z,100620.10
2023-03-16T19:20:56.723Z,100621.69
2023-03-16T19:23:31.152Z,100631.24
2023-03-16T19:25:59.322Z,100634.27
2023-03-16T19:28:34.803Z,100632.33
2023-03-16T19:31:28.102Z,100628.11
2023-03-16T19:33:57.327Z,100633.02
2023-03-16T19:36:30.405Z,100639.20
2023-03-16T19:39:00.539Z,100636.66
2023-03-16T19:41:33.937Z,100636.84
2023-03-16T19:44:16.221Z,100645.95
2023-03-16T19:46:44.417Z,100646.21
2023-03-16T19:49:17.725Z,100650.55
2023-03-16T19:51:51.274Z,100651.90
2023-03-16T19:54:24.515Z,100650.80
2023-03-16T19:56:53.707Z,100653.29
2023-03-16T19:59:23.110Z,100645.52
2023-03-16T20:01:51.694Z,100655.34
2023-03-16T20:04:24.245Z,100658.73
2023-03-16T20:06:54.289Z,100655.40
2023-03-16T20:09:23.015Z,100655.27
2023-03-16T20:11:51.355Z,100651.73
2023-03-16T20:14:32.169Z,100657.80
2023-03-16T20:17:01.279Z,100656.39
2023-03-16T20:19:31.760Z,100656.55
2023-03-16T20:22:00.229Z,100653.70
2023-03-16T20:24:29.092Z,100662.58
2023-03-16T20:27:03.878Z,100667.36
2023-03-16T20:29:32.334Z,100667.31
2023-03-16T20:32:01.385Z,100670.23
2023-03-16T20:34:31.478Z,100670.33
2023-03-16T20:36:59.933Z,100674.07
2023-03-16T20:39:28.932Z,100675.07
2023-03-16T20:41:57.920Z,100678.59
2023-03-16T20:44:28.132Z,100681.55
2023-03-16T20:46:57.350Z,100673.58
2023-03-16T20:49:30.687Z,100675.38
2023-03-16T20:52:16.463Z,100674.70
2023-03-16T20:54:45.422Z,100676.17
2023-03-16T20:57:21.776Z,100670.16
2023-03-16T20:59:51.902Z,100671.39
2023-03-16T21:02:29.181Z,100673.03
2023-03-16T21:04:59.285Z,100676.50
2023-03-16T21:07:27.948Z,100674.25
2023-03-16T21:09:56.454Z,100670.39
2023-03-16T21:12:36.350Z,100672.55
2023-03-16T21:15:15.143Z,100675.04
2023-03-16T21:17:45.883Z,100684.48
2023-03-16T21:20:20.653Z,100684.27
2023-03-16T21:22:49.112Z,100688.85
2023-03-16T21:25:32.801Z,100688.44
2023-03-16T21:28:03.462Z,100689.86
2023-03-16T21:30:44.690Z,100687.63
2023-03-16T21:33:36.168Z,100695.56
2023-03-16T21:36:07.248Z,100691.75
2023-03-16T21:38:36.397Z,100693.41
2023-03-16T21:41:05.197Z,100699.48
2023-03-16T21:43:36.434Z,100698.38
2023-03-16T21:46:05.814Z,100700.66
2023-03-16T21:48:38.213Z,100698.63
2023-03-16T21:51:19.125Z,100699.57
2023-03-16T21:53:48.094Z,100703.25
2023-03-16T21:56:18.812Z,100708.66
2023-03-16T21:58:47.532Z,100716.63
2023-03-16T22:01:25.138Z,100713.67
2023-03-16T22:03:57.218Z,100714.46
2023-03-16T22:06:26.101Z,100726.21
2023-03-16T22:08:55.997Z,100731.58
2023-03-16T22:11:28.160Z,100736.25
2023-03-16T22:13:57.744Z,100734.17
2023-03-16T22:16:28.118Z,100737.16
2023-03-16T22:18:57.032Z,100742.84
2023-03-16T22:21:39.033Z,100733.34
2023-03-16T22:24:28.050Z,100738.89
2023-03-16T22:26:56.911Z,100741.54
2023-03-16T22:29:29.352Z,100747.25
2023-03-16T22:32:04.457Z,100749.96
2023-03-16T22:34:38.532Z,100748.74
2023-03-16T22:37:07.140Z,100754.23
2023-03-16T22:39:37.812Z,100755.79
2023-03-16T22:42:27.738Z,100752.54
2023-03-16T22:44:56.221Z,100756.90
2023-03-16T22:47:28.188Z,100762.58
2023-03-16T22:49:56.748Z,100760.85
2023-03-16T22:52:29.754Z,100767.38
2023-03-16T22:54:59.264Z,100769.95
2023-03-16T22:57:27.843Z,100768.15
2023-03-16T23:00:01.555Z,100766.83
2023-03-16T23:02:30.745Z,100763.55
2023-03-16T23:04:59.114Z,100760.41
2023-03-16T23:07:28.424Z,100759.07
2023-03-16T23:09:56.909Z,100758.95
2023-03-16T23:12:26.435Z,100758.84
2023-03-16T23:14:55.407Z,100757.02
2023-03-16T23:17:24.010Z,100762.44
2023-03-16T23:19:54.933Z,100759.74
2023-03-16T23:22:24.343Z,100764.74
2023-03-16T23:24:52.663Z,100759.10
2023-03-16T23:27:22.944Z,100762.05
2023-03-16T23:29:51.314Z,100767.52
2023-03-16T23:32:19.602Z,100769.67
2023-03-16T23:34:47.811Z,100764.02
2023-03-16T23:37:16.584Z,100772.07
2023-03-16T23:39:44.738Z,100769.19
2023-03-16T23:42:12.858Z,100778.32
2023-03-16T23:44:42.829Z,100781.66
2023-03-16T23:47:11.261Z,100776.95
2023-03-16T23:49:40.048Z,100779.80
2023-03-16T23:52:10.821Z,100778.52
2023-03-16T23:54:39.200Z,100776.27
2023-03-16T23:57:08.925Z,100776.60
2023-03-16T23:59:37.501Z,100774.52
